Flight ASXV35

  • Submitted By: Krzysztof H. Blaszkow
  • Departure Airport: Tenerife Norte Los Rodeo Airport (GCXO)
  • Arrival Airport: La Palma Airport (GCLA)
  • Aircraft: C 172 (LC-LXZ)
  • Flight Time: 01.11.47
  • Date Submitted: 07/01/2017
  • Route: GCXOW BUENAVISTA GCLAE
  • Status: Accepted
Flight Details
Gross Revenue:
(3 load / € 300.00 per unit
€ 900.00
Fuel Cost:
(22.6796 fuel used @ 0.45 / unit)
€ 10.21

Additional Log Information:

View Log

[10:16] - Cessna Skyhawk 172SP Paint2
[10:16] - Flight ASXV35 is ready to depart GCXO with a final destination of GCLA.
[10:16] - Parking Brake Applied
[10:16] - Beacon Light ON
[10:16] - Boarding
[10:16] - ADF1 - 420.0
[10:16] - ADF2 - 240.0
[10:16] - NAV1 - 117.70
[10:16] - NAV2 - 116.20
[10:16] - COM1 - 122.80
[10:16] - COM2 - 123.45
[10:16] - Transponder - 7000
[10:20] - Engine 1 Started
[10:21] - Taxi Lights ON 3AGL
[10:21] - Navigation Lights ON 3AGL
[10:21] - Strobe Lights ON 3AGL
[10:21] - Strobe Lights OFF 3AGL
[10:21] - Parking Brake Released
[10:24] - Taxiing to Runway
[10:26] - Strobe Lights ON 7AGL
[10:26] - Landing Lights ON 7AGL
[10:26] - Taxi Lights OFF 3AGL
[10:28] - Taking Off with 3 passengers on board
[10:28] - Take off at 68kts, with a pitch of 7deg and 190lbs of fuel on board
[10:28] - Wind Heading 360 | Wind Speed 13kts | Temperature 20 deg C
[10:28] - METAR Departure: GCXO 010900Z 32014KT 290V010 9999 FEW009 BKN015 16/13 Q1022 WS ALL RWY NOSIG

[10:29] - Climbing to TOC
[10:29] - TOC reached
[10:29] - Cruise started
[10:29] - Landing Lights OFF 722AGL
[10:34] - AutoPilot Engaged at 1149AGL
[10:47] - Flaps to position 1 at 2654ft and 105kts
[10:47] - Flaps to position 0 at 2661ft and 105kts
[10:50] - ADF1 - 389.0
[11:11] - AutoPilot Disengaged at 827AGL
[11:12] - Flaps to position 1 at 768ft and 103kts
[11:12] - Flaps to position 2 at 768ft and 102kts
[11:15] - Flaps to position 0 at 669ft and 67kts
[11:16] - Landing Lights ON 886AGL
[11:17] - Flaps to position 1 at 568ft and 97kts
[11:17] - Flaps to position 2 at 564ft and 97kts
[11:18] - Landed at -62fpm. With 142lbs of fuel onboard and a pitch angle of 2deg.
[11:18] - Wind Heading 348 | Wind Speed 14kts | Temperature 23 deg C
[11:18] - METAR Arrival: GCLA 011000Z 02016KT 350V050 9999 SCT030 23/16 Q1022 REDZ

[11:18] - Flaps to position 1
[11:18] - Flaps to position 0
[11:18] - Taxiing to Gate
[11:20] - Landing Lights OFF 3AGL
[11:20] - Taxi Lights ON 3AGL
[11:27] - Parking Brake Applied
[11:27] - Arrived safely at GCLA. We hope you enjoyed your flight!
[11:27] - Taxi Lights OFF 3AGL
[11:27] - Navigation Lights OFF 3AGL
[11:27] - Strobe Lights OFF 3AGL
[11:27] - Engine 1 Stopped
[11:28] - Cessna Skyhawk 172SP Paint2
[11:28] - MaxSim Rate: 1x
[11:28] - SiouxAcars ver: 1.0.1.2

Route Map